createdAt,value
2022-08-31T00:01:52.043Z,98205.00
2022-08-31T00:05:59.301Z,98207.00
2022-08-31T00:10:03.423Z,98208.00
2022-08-31T00:14:07.435Z,98213.00
2022-08-31T00:18:10.366Z,98207.00
2022-08-31T00:22:13.377Z,98208.00
2022-08-31T00:26:15.749Z,98207.00
2022-08-31T00:30:17.264Z,98202.00
2022-08-31T00:34:18.280Z,98203.00
2022-08-31T00:38:19.287Z,98200.00
2022-08-31T00:42:20.279Z,98211.00
2022-08-31T00:46:25.145Z,98209.00
2022-08-31T00:50:27.054Z,98206.00
2022-08-31T00:54:31.693Z,98205.00
2022-08-31T00:58:33.084Z,98202.00
2022-08-31T01:02:34.133Z,98204.00
2022-08-31T01:06:35.862Z,98213.00
2022-08-31T01:10:40.667Z,98199.00
2022-08-31T01:14:42.582Z,98206.00
2022-08-31T01:18:45.208Z,98203.00
2022-08-31T01:22:59.222Z,98199.00
2022-08-31T01:27:04.027Z,97979.00
2022-08-31T01:31:11.913Z,98193.00
2022-08-31T01:35:13.019Z,98194.00
2022-08-31T01:39:14.024Z,98188.00
2022-08-31T01:43:15.545Z,98195.00
2022-08-31T01:47:16.730Z,98189.00
2022-08-31T01:51:20.564Z,98188.00
2022-08-31T01:55:21.569Z,98190.00
2022-08-31T01:59:22.777Z,98189.00
2022-08-31T02:03:23.783Z,98184.00
2022-08-31T02:07:25.029Z,98186.00
2022-08-31T02:11:27.718Z,98193.00
2022-08-31T02:15:29.170Z,98185.00
2022-08-31T02:19:30.171Z,98186.00
2022-08-31T02:23:33.708Z,98190.00
2022-08-31T02:27:36.329Z,98190.00
2022-08-31T02:31:37.473Z,98191.00
2022-08-31T02:35:38.568Z,98192.00
2022-08-31T02:39:39.986Z,98188.00
2022-08-31T02:43:41.481Z,98196.00
2022-08-31T02:47:42.529Z,98198.00
2022-08-31T02:51:43.854Z,98201.00
2022-08-31T02:55:44.924Z,98199.00
2022-08-31T02:59:46.265Z,98194.00
2022-08-31T03:03:48.757Z,98191.00
2022-08-31T03:07:50.236Z,98189.00
2022-08-31T03:11:51.370Z,98192.00
2022-08-31T03:15:52.728Z,98199.00
2022-08-31T03:20:01.424Z,98194.00
2022-08-31T03:24:03.432Z,98203.00
2022-08-31T03:28:04.456Z,98213.00
2022-08-31T03:32:05.682Z,98219.00
2022-08-31T03:36:06.709Z,98220.00
2022-08-31T03:40:09.397Z,98229.00
2022-08-31T03:44:10.384Z,98239.00
2022-08-31T03:48:13.069Z,98238.00
2022-08-31T03:52:14.224Z,98260.00
2022-08-31T03:56:15.313Z,98249.00
2022-08-31T04:00:16.836Z,98242.00
2022-08-31T04:04:18.030Z,98250.00
2022-08-31T04:08:20.386Z,98259.00
2022-08-31T04:12:21.374Z,98249.00
2022-08-31T04:16:24.058Z,98249.00
2022-08-31T04:20:29.736Z,98252.00
2022-08-31T04:24:28.923Z,98253.00
2022-08-31T04:28:29.955Z,98255.00
2022-08-31T04:32:30.965Z,98257.00
2022-08-31T04:36:32.058Z,98259.00
2022-08-31T04:40:35.115Z,98262.00
2022-08-31T04:44:36.162Z,98269.00
2022-08-31T04:48:39.381Z,98270.00
2022-08-31T04:52:41.503Z,98272.00
2022-08-31T04:56:44.240Z,98268.00
2022-08-31T05:00:45.859Z,98267.00
2022-08-31T05:04:47.077Z,98271.00
2022-08-31T05:08:54.565Z,98267.00
2022-08-31T05:12:55.500Z,98273.00
2022-08-31T05:16:56.379Z,98268.00
2022-08-31T05:20:57.771Z,98272.00
2022-08-31T05:24:58.843Z,98278.00
2022-08-31T05:29:01.482Z,98283.00
2022-08-31T05:33:02.592Z,98280.00
2022-08-31T05:37:03.768Z,98274.00
2022-08-31T05:41:06.019Z,98275.00
2022-08-31T05:45:07.833Z,98274.00
2022-08-31T05:49:10.251Z,98275.00
2022-08-31T05:53:13.930Z,98281.00
2022-08-31T05:57:14.891Z,98287.00
2022-08-31T06:01:24.579Z,98281.00
2022-08-31T06:05:25.966Z,98275.00
2022-08-31T06:09:27.344Z,98290.00
2022-08-31T06:13:28.589Z,98288.00
2022-08-31T06:17:29.685Z,98282.00
2022-08-31T06:21:33.850Z,98284.00
2022-08-31T06:25:35.973Z,98288.00
2022-08-31T06:29:37.057Z,98286.00
2022-08-31T06:33:39.281Z,98290.00
2022-08-31T06:37:40.200Z,98287.00
2022-08-31T06:41:41.320Z,98288.00
2022-08-31T06:45:42.589Z,98287.00
2022-08-31T06:49:43.602Z,98285.00
2022-08-31T06:53:44.762Z,98298.00
2022-08-31T06:57:45.847Z,98302.00
2022-08-31T07:01:48.823Z,98298.00
2022-08-31T07:05:51.780Z,98306.00
2022-08-31T07:09:52.869Z,98310.00
2022-08-31T07:13:55.801Z,98312.00
2022-08-31T07:17:56.798Z,98261.00
2022-08-31T07:22:01.098Z,98310.00
2022-08-31T07:26:11.593Z,98316.00
2022-08-31T07:30:13.016Z,98320.00
2022-08-31T07:34:26.073Z,98327.00
2022-08-31T07:38:45.770Z,98319.00
2022-08-31T07:42:47.071Z,98330.00
2022-08-31T07:46:50.370Z,98333.00
2022-08-31T07:50:52.589Z,98330.00
2022-08-31T07:55:01.445Z,98331.00
2022-08-31T07:59:04.972Z,98344.00
2022-08-31T08:03:10.727Z,98340.00
2022-08-31T08:07:12.217Z,98343.00
2022-08-31T08:11:17.670Z,98346.00
2022-08-31T08:15:18.946Z,98344.00
2022-08-31T08:19:20.372Z,98355.00
2022-08-31T08:23:27.993Z,98340.00
2022-08-31T08:27:24.288Z,98350.00
2022-08-31T08:31:27.219Z,98358.00
2022-08-31T08:35:30.305Z,98358.00
2022-08-31T08:39:31.231Z,98365.00
2022-08-31T08:43:38.937Z,98364.00
2022-08-31T08:47:40.255Z,98361.00
2022-08-31T08:51:42.994Z,98364.00
2022-08-31T08:55:44.080Z,98357.00
2022-08-31T08:59:49.046Z,98358.00
2022-08-31T09:03:59.400Z,98362.00
2022-08-31T09:08:15.267Z,98373.00
2022-08-31T09:12:35.479Z,98368.00
2022-08-31T09:16:41.574Z,98366.00
2022-08-31T09:20:42.656Z,98376.00
2022-08-31T09:24:44.264Z,98378.00
2022-08-31T09:28:47.677Z,98377.00
2022-08-31T09:32:56.927Z,98376.00
2022-08-31T09:37:18.812Z,98376.00
2022-08-31T09:41:32.903Z,98377.00
2022-08-31T09:45:38.900Z,98380.00
2022-08-31T09:49:38.836Z,98383.00
2022-08-31T09:54:00.259Z,98383.00
2022-08-31T09:58:07.096Z,98372.00
2022-08-31T10:02:25.841Z,98373.00
2022-08-31T10:06:32.637Z,98375.00
2022-08-31T10:10:37.396Z,98377.00
2022-08-31T10:14:54.530Z,98371.00
2022-08-31T10:19:18.006Z,98376.00
2022-08-31T10:23:37.856Z,98375.00
2022-08-31T10:27:55.250Z,98362.00
2022-08-31T10:31:58.165Z,98365.00
2022-08-31T10:36:00.098Z,98366.00
2022-08-31T10:40:07.904Z,98365.00
2022-08-31T10:44:25.872Z,98366.00
2022-08-31T10:48:27.070Z,98369.00
2022-08-31T10:52:34.267Z,98373.00
2022-08-31T10:56:59.418Z,98363.00
2022-08-31T11:01:09.025Z,98368.00
2022-08-31T11:05:24.637Z,98362.00
2022-08-31T11:09:32.989Z,98376.00
2022-08-31T11:13:59.969Z,98368.00
2022-08-31T11:18:13.319Z,98371.00
2022-08-31T11:22:37.068Z,98377.00
2022-08-31T11:26:56.963Z,98364.00
2022-08-31T11:31:00.911Z,98363.00
2022-08-31T11:35:07.074Z,98366.00
2022-08-31T11:39:11.868Z,98362.00
2022-08-31T11:43:16.329Z,98355.00
2022-08-31T11:47:36.646Z,98348.00
2022-08-31T11:51:47.105Z,98343.00
2022-08-31T11:55:52.075Z,98346.00
2022-08-31T11:59:55.410Z,98341.00
2022-08-31T12:04:04.139Z,98340.00
2022-08-31T12:08:07.542Z,98334.00
2022-08-31T12:12:19.175Z,98330.00
2022-08-31T12:16:24.487Z,98326.00
2022-08-31T12:21:14.014Z,98334.00
2022-08-31T12:25:24.869Z,98329.00
2022-08-31T12:29:32.354Z,98326.00
2022-08-31T12:33:36.164Z,98325.00
2022-08-31T12:37:38.692Z,98311.00
2022-08-31T12:41:46.082Z,98337.00
2022-08-31T12:46:20.134Z,98325.00
2022-08-31T12:50:31.217Z,98337.00
2022-08-31T12:54:45.485Z,98337.00
2022-08-31T12:58:56.407Z,98320.00
2022-08-31T13:03:01.364Z,98328.00
2022-08-31T13:07:24.474Z,98316.00
2022-08-31T13:11:34.895Z,98320.00
2022-08-31T13:15:41.653Z,98320.00
2022-08-31T13:19:57.705Z,98313.00
2022-08-31T13:24:08.145Z,98318.00
2022-08-31T13:28:17.001Z,98317.00
2022-08-31T13:32:29.681Z,98320.00
2022-08-31T13:36:35.700Z,98306.00
2022-08-31T13:40:38.765Z,98308.00
2022-08-31T13:44:43.450Z,98303.00
2022-08-31T13:48:49.115Z,98305.00
2022-08-31T13:53:23.018Z,98300.00
2022-08-31T13:57:23.398Z,98296.00
2022-08-31T14:01:25.781Z,98286.00
2022-08-31T14:05:31.165Z,98296.00
2022-08-31T14:09:32.420Z,98285.00
2022-08-31T14:13:34.016Z,98287.00
2022-08-31T14:22:33.324Z,98281.00
2022-08-31T14:26:37.368Z,98286.00
2022-08-31T14:30:39.983Z,98282.00
2022-08-31T14:34:43.038Z,98281.00
2022-08-31T14:38:45.566Z,98272.00
2022-08-31T14:42:46.605Z,98265.00
2022-08-31T14:46:47.790Z,98257.00
2022-08-31T14:50:48.924Z,98259.00
2022-08-31T14:54:49.847Z,98265.00
2022-08-31T14:58:53.426Z,98272.00
2022-08-31T15:02:54.454Z,98257.00
2022-08-31T15:06:57.339Z,98259.00
2022-08-31T15:10:58.495Z,98284.00
2022-08-31T15:14:59.608Z,98267.00
2022-08-31T15:19:01.538Z,98259.00
2022-08-31T15:23:05.737Z,98255.00
2022-08-31T15:27:11.356Z,98264.00
2022-08-31T15:31:25.025Z,98265.00
2022-08-31T15:35:28.412Z,98269.00
2022-08-31T15:39:34.457Z,98261.00
2022-08-31T15:43:35.762Z,98263.00
2022-08-31T15:47:58.923Z,98248.00
2022-08-31T15:52:00.247Z,98252.00
2022-08-31T15:56:05.148Z,98259.00
2022-08-31T16:00:09.842Z,98247.00
2022-08-31T16:04:12.871Z,98245.00
2022-08-31T16:08:13.981Z,98244.00
2022-08-31T16:12:16.496Z,98244.00
2022-08-31T16:16:19.919Z,98246.00
2022-08-31T16:20:21.167Z,98236.00
2022-08-31T16:24:23.497Z,98234.00
2022-08-31T16:28:24.418Z,98234.00
2022-08-31T16:32:27.500Z,98225.00
2022-08-31T16:36:28.737Z,98229.00
2022-08-31T16:40:30.119Z,98228.00
2022-08-31T16:44:36.675Z,98240.00
2022-08-31T16:48:56.212Z,98234.00
2022-08-31T16:52:59.013Z,98232.00
2022-08-31T16:57:00.183Z,98230.00
2022-08-31T17:01:03.793Z,98221.00
2022-08-31T17:05:07.598Z,98229.00
2022-08-31T17:09:14.175Z,98229.00
2022-08-31T17:13:15.314Z,98232.00
2022-08-31T17:17:19.949Z,98232.00
2022-08-31T17:21:26.345Z,98240.00
2022-08-31T17:25:28.448Z,98237.00
2022-08-31T17:29:32.301Z,98234.00
2022-08-31T17:33:36.028Z,98247.00
2022-08-31T17:37:37.132Z,98249.00
2022-08-31T17:41:40.583Z,98250.00
2022-08-31T17:45:42.024Z,98255.00
2022-08-31T17:49:46.419Z,98253.00
2022-08-31T17:53:45.992Z,98255.00
2022-08-31T17:57:47.804Z,98259.00
2022-08-31T18:01:52.416Z,98259.00
2022-08-31T18:05:53.522Z,98271.00
2022-08-31T18:09:54.539Z,98275.00
2022-08-31T18:13:56.669Z,98285.00
2022-08-31T18:17:58.573Z,98287.00
2022-08-31T18:22:00.517Z,98285.00
2022-08-31T18:26:01.542Z,98294.00
2022-08-31T18:30:03.958Z,98295.00
2022-08-31T18:34:11.306Z,98300.00
2022-08-31T18:38:12.576Z,98286.00
2022-08-31T18:42:32.672Z,98306.00
2022-08-31T18:46:34.359Z,98314.00
2022-08-31T18:50:36.475Z,98316.00
2022-08-31T18:54:38.765Z,98319.00
2022-08-31T18:58:41.008Z,98322.00
2022-08-31T19:02:42.106Z,98323.00
2022-08-31T19:06:43.877Z,98325.00
2022-08-31T19:10:44.860Z,98323.00
2022-08-31T19:14:49.620Z,98330.00
2022-08-31T19:18:53.084Z,98328.00
2022-08-31T19:22:54.218Z,98319.00
2022-08-31T19:26:58.687Z,98327.00
2022-08-31T19:31:00.068Z,98325.00
2022-08-31T19:35:23.094Z,98328.00
2022-08-31T19:39:27.887Z,98323.00
2022-08-31T19:43:52.968Z,98325.00
2022-08-31T19:47:34.148Z,98323.00
2022-08-31T19:51:35.587Z,98320.00
2022-08-31T19:55:36.704Z,98324.00
2022-08-31T19:59:38.106Z,98324.00
2022-08-31T20:03:40.456Z,98321.00
2022-08-31T20:07:43.593Z,98325.00
2022-08-31T20:11:48.508Z,98330.00
2022-08-31T20:15:51.620Z,98323.00
2022-08-31T20:19:54.165Z,98327.00
2022-08-31T20:23:58.602Z,98325.00
2022-08-31T20:27:59.808Z,98329.00
2022-08-31T20:32:00.974Z,98331.00
2022-08-31T20:36:16.334Z,98331.00
2022-08-31T20:40:20.607Z,98322.00
2022-08-31T20:44:24.667Z,98343.00
2022-08-31T20:48:44.538Z,98320.00
2022-08-31T20:52:45.759Z,98322.00
2022-08-31T20:56:46.802Z,98316.00
2022-08-31T21:00:48.993Z,98335.00
2022-08-31T21:04:50.078Z,98323.00
2022-08-31T21:08:56.658Z,98316.00
2022-08-31T21:13:00.112Z,98312.00
2022-08-31T21:17:03.015Z,98320.00
2022-08-31T21:21:07.519Z,98351.00
2022-08-31T21:25:11.188Z,98326.00
2022-08-31T21:29:15.817Z,98329.00
2022-08-31T21:33:17.260Z,98336.00
2022-08-31T21:37:18.297Z,98338.00
2022-08-31T21:41:22.338Z,98334.00
2022-08-31T21:45:24.551Z,98333.00
2022-08-31T21:49:28.406Z,98331.00
2022-08-31T21:53:29.401Z,98333.00
2022-08-31T21:57:31.328Z,98332.00
2022-08-31T22:01:34.655Z,98332.00
2022-08-31T22:05:43.181Z,98337.00
2022-08-31T22:09:46.032Z,98337.00
2022-08-31T22:13:49.847Z,98341.00
2022-08-31T22:18:06.302Z,98352.00
2022-08-31T22:21:58.421Z,98348.00
2022-08-31T22:26:01.266Z,98342.00
2022-08-31T22:30:03.936Z,98353.00
2022-08-31T22:34:07.965Z,98351.00
2022-08-31T22:38:10.024Z,98347.00
2022-08-31T22:42:12.506Z,98347.00
2022-08-31T22:46:18.385Z,98350.00
2022-08-31T22:50:39.731Z,98350.00
2022-08-31T22:54:42.246Z,98351.00
2022-08-31T22:58:44.879Z,98341.00
2022-08-31T23:02:45.931Z,98335.00
2022-08-31T23:06:51.088Z,98334.00
2022-08-31T23:10:52.167Z,98327.00
2022-08-31T23:14:54.888Z,98330.00
2022-08-31T23:19:01.335Z,98337.00
2022-08-31T23:23:04.550Z,98329.00
2022-08-31T23:27:09.819Z,98326.00
2022-08-31T23:31:10.884Z,98332.00
2022-08-31T23:35:15.935Z,98322.00
2022-08-31T23:39:19.443Z,98323.00
2022-08-31T23:43:21.326Z,98318.00
2022-08-31T23:47:28.800Z,98309.00
2022-08-31T23:51:29.825Z,98308.00
2022-08-31T23:55:31.365Z,98312.00
2022-08-31T23:59:33.774Z,98315.00
